sensor_id;sensor_type;location;lat;lon;timestamp;pressure;altitude;pressure_sealevel;temperature;humidity
46942;BME280;32676;52.630;4.896;2023-08-24T00:02:10;100121.06;;;17.02;78.10
46942;BME280;32676;52.630;4.896;2023-08-24T00:04:37;100122.75;;;17.03;78.43
46942;BME280;32676;52.630;4.896;2023-08-24T00:07:03;100122.75;;;17.03;78.11
46942;BME280;32676;52.630;4.896;2023-08-24T00:09:30;100128.06;;;17.03;78.20
46942;BME280;32676;52.630;4.896;2023-08-24T00:11:58;100133.38;;;17.03;78.32
46942;BME280;32676;52.630;4.896;2023-08-24T00:14:24;100142.09;;;17.05;78.50
46942;BME280;32676;52.630;4.896;2023-08-24T00:16:51;100148.22;;;17.05;78.52
46942;BME280;32676;52.630;4.896;2023-08-24T00:19:17;100156.94;;;17.07;78.48
46942;BME280;32676;52.630;4.896;2023-08-24T00:21:43;100163.06;;;17.08;78.60
46942;BME280;32676;52.630;4.896;2023-08-24T00:24:10;100174.47;;;17.10;78.82
46942;BME280;32676;52.630;4.896;2023-08-24T00:26:36;100166.59;;;17.08;78.80
46942;BME280;32676;52.630;4.896;2023-08-24T00:29:04;100178.81;;;17.11;79.16
46942;BME280;32676;52.630;4.896;2023-08-24T00:31:30;100185.09;;;17.10;79.41
46942;BME280;32676;52.630;4.896;2023-08-24T00:33:57;100191.13;;;17.12;79.60
46942;BME280;32676;52.630;4.896;2023-08-24T00:36:24;100212.13;;;17.15;79.96
46942;BME280;32676;52.630;4.896;2023-08-24T00:38:50;100222.56;;;17.18;79.80
46942;BME280;32676;52.630;4.896;2023-08-24T00:41:18;100247.81;;;17.24;80.13
46942;BME280;32676;52.630;4.896;2023-08-24T00:43:46;100262.72;;;17.26;79.86
46942;BME280;32676;52.630;4.896;2023-08-24T00:46:14;100272.34;;;17.27;79.89
46942;BME280;32676;52.630;4.896;2023-08-24T00:48:40;100294.13;;;17.33;80.20
46942;BME280;32676;52.630;4.896;2023-08-24T00:51:06;100311.56;;;17.37;79.83
46942;BME280;32676;52.630;4.896;2023-08-24T00:53:33;100320.25;;;17.39;79.95
46942;BME280;32676;52.630;4.896;2023-08-24T00:55:59;100337.06;;;17.39;80.11
46942;BME280;32676;52.630;4.896;2023-08-24T00:58:26;100362.38;;;17.45;80.08
46942;BME280;32676;52.630;4.896;2023-08-24T01:00:52;100385.09;;;17.49;80.15
46942;BME280;32676;52.630;4.896;2023-08-24T01:03:21;100401.69;;;17.53;80.08
46942;BME280;32676;52.630;4.896;2023-08-24T01:05:48;100410.38;;;17.55;79.88
46942;BME280;32676;52.630;4.896;2023-08-24T01:08:14;100416.53;;;17.55;80.12
46942;BME280;32676;52.630;4.896;2023-08-24T01:10:41;100410.50;;;17.53;80.14
46942;BME280;32676;52.630;4.896;2023-08-24T01:13:11;100420.19;;;17.54;80.28
46942;BME280;32676;52.630;4.896;2023-08-24T01:15:42;100426.22;;;17.56;80.28
46942;BME280;32676;52.630;4.896;2023-08-24T01:18:14;100452.59;;;17.59;80.26
46942;BME280;32676;52.630;4.896;2023-08-24T01:20:45;100471.75;;;17.64;80.21
46942;BME280;32676;52.630;4.896;2023-08-24T01:23:18;100483.97;;;17.67;80.45
46942;BME280;32676;52.630;4.896;2023-08-24T01:25:51;100491.84;;;17.69;80.30
46942;BME280;32676;52.630;4.896;2023-08-24T01:28:19;100504.16;;;17.70;80.26
46942;BME280;32676;52.630;4.896;2023-08-24T01:30:46;100504.16;;;17.70;80.18
46942;BME280;32676;52.630;4.896;2023-08-24T01:33:13;100498.84;;;17.70;80.25
46942;BME280;32676;52.630;4.896;2023-08-24T01:35:40;100507.78;;;17.69;80.40
46942;BME280;32676;52.630;4.896;2023-08-24T01:38:06;100509.47;;;17.70;80.45
46942;BME280;32676;52.630;4.896;2023-08-24T01:40:39;100526.16;;;17.72;80.65
46942;BME280;32676;52.630;4.896;2023-08-24T01:43:08;100531.38;;;17.73;80.63
46942;BME280;32676;52.630;4.896;2023-08-24T01:45:37;100544.56;;;17.75;80.78
46942;BME280;32676;52.630;4.896;2023-08-24T01:48:05;100547.03;;;17.78;80.79
46942;BME280;32676;52.630;4.896;2023-08-24T01:50:32;100564.66;;;17.79;80.86
46942;BME280;32676;52.630;4.896;2023-08-24T01:52:58;100577.75;;;17.82;80.95
46942;BME280;32676;52.630;4.896;2023-08-24T01:55:25;100598.84;;;17.85;80.93
46942;BME280;32676;52.630;4.896;2023-08-24T01:57:52;100615.44;;;17.89;80.82
46942;BME280;32676;52.630;4.896;2023-08-24T02:00:18;100625.97;;;17.90;81.10
46942;BME280;32676;52.630;4.896;2023-08-24T02:02:45;100646.09;;;17.94;81.09
46942;BME280;32676;52.630;4.896;2023-08-24T02:05:12;100668.84;;;17.98;80.84
46942;BME280;32676;52.630;4.896;2023-08-24T02:07:38;100680.97;;;18.02;80.89
46942;BME280;32676;52.630;4.896;2023-08-24T02:10:05;100696.75;;;18.06;81.03
46942;BME280;32676;52.630;4.896;2023-08-24T02:12:31;100712.50;;;18.09;80.95
46942;BME280;32676;52.630;4.896;2023-08-24T02:14:58;100714.19;;;18.10;80.92
46942;BME280;32676;52.630;4.896;2023-08-24T02:17:24;100728.25;;;18.12;81.06
46942;BME280;32676;52.630;4.896;2023-08-24T02:19:53;100726.56;;;18.11;81.00
46942;BME280;32676;52.630;4.896;2023-08-24T02:22:19;100731.88;;;18.11;81.03
46942;BME280;32676;52.630;4.896;2023-08-24T02:24:46;100731.03;;;18.10;81.06
46942;BME280;32676;52.630;4.896;2023-08-24T02:27:12;100737.19;;;18.11;81.13
46942;BME280;32676;52.630;4.896;2023-08-24T02:29:39;100721.41;;;18.08;80.84
46942;BME280;32676;52.630;4.896;2023-08-24T02:32:05;100720.59;;;18.07;81.14
46942;BME280;32676;52.630;4.896;2023-08-24T02:34:31;100723.34;;;18.06;80.88
46942;BME280;32676;52.630;4.896;2023-08-24T02:36:59;100707.56;;;18.02;80.75
46942;BME280;32676;52.630;4.896;2023-08-24T02:39:25;100697.16;;;17.99;80.61
46942;BME280;32676;52.630;4.896;2023-08-24T02:41:51;100683.31;;;17.94;80.75
46942;BME280;32676;52.630;4.896;2023-08-24T02:44:18;100670.97;;;17.93;80.74
46942;BME280;32676;52.630;4.896;2023-08-24T02:46:44;100672.78;;;17.93;80.80
46942;BME280;32676;52.630;4.896;2023-08-24T02:49:11;100681.59;;;17.93;80.91
46942;BME280;32676;52.630;4.896;2023-08-24T02:51:37;100672.88;;;17.91;81.00
46942;BME280;32676;52.630;4.896;2023-08-24T02:54:05;100669.47;;;17.89;81.16
46942;BME280;32676;52.630;4.896;2023-08-24T02:56:31;100653.69;;;17.86;81.21
46942;BME280;32676;52.630;4.896;2023-08-24T02:58:58;100651.13;;;17.84;81.50
46942;BME280;32676;52.630;4.896;2023-08-24T03:01:24;100658.19;;;17.86;81.53
46942;BME280;32676;52.630;4.896;2023-08-24T03:03:51;100659.91;;;17.87;81.69
46942;BME280;32676;52.630;4.896;2023-08-24T03:06:18;100666.06;;;17.87;81.70
46942;BME280;32676;52.630;4.896;2023-08-24T03:08:44;100666.06;;;17.87;81.80
46942;BME280;32676;52.630;4.896;2023-08-24T03:11:11;100666.91;;;17.88;81.78
46942;BME280;32676;52.630;4.896;2023-08-24T03:13:38;100671.38;;;17.87;81.86
46942;BME280;32676;52.630;4.896;2023-08-24T03:16:04;100674.88;;;17.88;81.86
46942;BME280;32676;52.630;4.896;2023-08-24T03:18:31;100677.53;;;17.88;81.82
46942;BME280;32676;52.630;4.896;2023-08-24T03:20:57;100681.03;;;17.88;81.96
46942;BME280;32676;52.630;4.896;2023-08-24T03:23:24;100666.22;;;17.84;81.85
46942;BME280;32676;52.630;4.896;2023-08-24T03:25:50;100641.72;;;17.79;81.81
46942;BME280;32676;52.630;4.896;2023-08-24T03:28:18;100631.31;;;17.76;81.89
46942;BME280;32676;52.630;4.896;2023-08-24T03:30:47;100623.53;;;17.73;82.07
46942;BME280;32676;52.630;4.896;2023-08-24T03:33:14;100606.00;;;17.70;82.13
46942;BME280;32676;52.630;4.896;2023-08-24T03:35:40;100608.75;;;17.69;82.53
46942;BME280;32676;52.630;4.896;2023-08-24T03:38:07;100590.66;;;17.61;82.52
46942;BME280;32676;52.630;4.896;2023-08-24T03:40:33;100603.63;;;17.65;82.50
46942;BME280;32676;52.630;4.896;2023-08-24T03:43:00;100604.47;;;17.66;82.62
46942;BME280;32676;52.630;4.896;2023-08-24T03:45:28;100590.53;;;17.62;82.78
46942;BME280;32676;52.630;4.896;2023-08-24T03:47:54;100592.34;;;17.62;82.91
46942;BME280;32676;52.630;4.896;2023-08-24T03:50:20;100594.91;;;17.63;83.05
46942;BME280;32676;52.630;4.896;2023-08-24T03:52:47;100595.75;;;17.64;83.10
46942;BME280;32676;52.630;4.896;2023-08-24T03:55:14;100594.06;;;17.63;83.02
46942;BME280;32676;52.630;4.896;2023-08-24T03:57:40;100589.78;;;17.60;82.92
46942;BME280;32676;52.630;4.896;2023-08-24T04:00:07;100581.06;;;17.58;83.09
46942;BME280;32676;52.630;4.896;2023-08-24T04:02:37;100577.69;;;17.56;83.02
46942;BME280;32676;52.630;4.896;2023-08-24T04:05:04;100571.63;;;17.54;82.95
46942;BME280;32676;52.630;4.896;2023-08-24T04:07:30;100570.88;;;17.52;82.84
46942;BME280;32676;52.630;4.896;2023-08-24T04:09:57;100556.84;;;17.50;82.97
46942;BME280;32676;52.630;4.896;2023-08-24T04:12:23;100555.13;;;17.49;82.72
46942;BME280;32676;52.630;4.896;2023-08-24T04:14:49;100548.09;;;17.48;82.65
46942;BME280;32676;52.630;4.896;2023-08-24T04:17:18;100545.56;;;17.46;82.72
46942;BME280;32676;52.630;4.896;2023-08-24T04:19:46;100544.69;;;17.46;82.86
46942;BME280;32676;52.630;4.896;2023-08-24T04:22:12;100567.47;;;17.50;82.76
46942;BME280;32676;52.630;4.896;2023-08-24T04:24:39;100560.44;;;17.49;82.76
46942;BME280;32676;52.630;4.896;2023-08-24T04:27:05;100566.59;;;17.50;82.77
46942;BME280;32676;52.630;4.896;2023-08-24T04:29:31;100567.47;;;17.50;82.83
46942;BME280;32676;52.630;4.896;2023-08-24T04:31:58;100564.03;;;17.48;82.74
46942;BME280;32676;52.630;4.896;2023-08-24T04:34:24;100563.19;;;17.48;82.67
46942;BME280;32676;52.630;4.896;2023-08-24T04:36:52;100553.63;;;17.45;82.55
46942;BME280;32676;52.630;4.896;2023-08-24T04:39:20;100557.97;;;17.46;82.56
46942;BME280;32676;52.630;4.896;2023-08-24T04:41:47;100551.91;;;17.44;82.80
46942;BME280;32676;52.630;4.896;2023-08-24T04:44:13;100542.34;;;17.41;82.73
46942;BME280;32676;52.630;4.896;2023-08-24T04:46:39;100527.56;;;17.37;82.46
46942;BME280;32676;52.630;4.896;2023-08-24T04:49:05;100515.31;;;17.35;82.76
46942;BME280;32676;52.630;4.896;2023-08-24T04:51:32;100517.22;;;17.33;82.77
46942;BME280;32676;52.630;4.896;2023-08-24T04:53:59;100516.28;;;17.34;82.98
46942;BME280;32676;52.630;4.896;2023-08-24T04:56:26;100514.56;;;17.33;82.96
46942;BME280;32676;52.630;4.896;2023-08-24T04:58:52;100522.53;;;17.33;82.95
46942;BME280;32676;52.630;4.896;2023-08-24T05:01:20;100524.25;;;17.34;83.43
46942;BME280;32676;52.630;4.896;2023-08-24T05:03:46;100534.66;;;17.37;83.42
46942;BME280;32676;52.630;4.896;2023-08-24T05:06:12;100552.31;;;17.38;83.61
46942;BME280;32676;52.630;4.896;2023-08-24T05:08:39;100562.75;;;17.41;83.81
46942;BME280;32676;52.630;4.896;2023-08-24T05:11:11;100572.31;;;17.43;83.72
46942;BME280;32676;52.630;4.896;2023-08-24T05:13:37;100583.59;;;17.47;84.06
46942;BME280;32676;52.630;4.896;2023-08-24T05:16:04;100604.66;;;17.50;83.96
46942;BME280;32676;52.630;4.896;2023-08-24T05:18:30;100627.41;;;17.54;83.96
46942;BME280;32676;52.630;4.896;2023-08-24T05:20:56;100637.84;;;17.57;83.93
46942;BME280;32676;52.630;4.896;2023-08-24T05:23:23;100665.91;;;17.61;83.81
46942;BME280;32676;52.630;4.896;2023-08-24T05:25:49;100681.44;;;17.68;83.86
46942;BME280;32676;52.630;4.896;2023-08-24T05:28:16;100711.25;;;17.73;83.71
46942;BME280;32676;52.630;4.896;2023-08-24T05:30:43;100735.72;;;17.78;83.87
46942;BME280;32676;52.630;4.896;2023-08-24T05:33:10;100754.03;;;17.82;83.49
46942;BME280;32676;52.630;4.896;2023-08-24T05:35:36;100778.66;;;17.86;83.48
46942;BME280;32676;52.630;4.896;2023-08-24T05:38:02;100797.91;;;17.90;83.62
46942;BME280;32676;52.630;4.896;2023-08-24T05:40:29;100817.09;;;17.95;83.56
46942;BME280;32676;52.630;4.896;2023-08-24T05:42:55;100841.59;;;18.00;83.48
46942;BME280;32676;52.630;4.896;2023-08-24T05:45:23;100870.56;;;18.05;83.36
46942;BME280;32676;52.630;4.896;2023-08-24T05:47:49;100894.19;;;18.09;83.44
46942;BME280;32676;52.630;4.896;2023-08-24T05:50:15;100907.22;;;18.14;83.47
46942;BME280;32676;52.630;4.896;2023-08-24T05:52:42;100938.72;;;18.20;83.46
46942;BME280;32676;52.630;4.896;2023-08-24T05:55:08;100956.19;;;18.24;83.34
46942;BME280;32676;52.630;4.896;2023-08-24T05:57:34;100976.34;;;18.28;83.34
46942;BME280;32676;52.630;4.896;2023-08-24T06:00:01;100995.53;;;18.33;83.22
46942;BME280;32676;52.630;4.896;2023-08-24T06:02:28;101025.38;;;18.38;83.20
46942;BME280;32676;52.630;4.896;2023-08-24T06:04:55;101054.28;;;18.45;82.93
46942;BME280;32676;52.630;4.896;2023-08-24T06:07:21;101077.94;;;18.49;83.03
46942;BME280;32676;52.630;4.896;2023-08-24T06:09:47;101097.97;;;18.55;83.00
46942;BME280;32676;52.630;4.896;2023-08-24T06:12:14;101138.31;;;18.63;82.98
46942;BME280;32676;52.630;4.896;2023-08-24T06:14:40;101173.28;;;18.71;82.91
46942;BME280;32676;52.630;4.896;2023-08-24T06:17:06;101210.97;;;18.79;82.84
46942;BME280;32676;52.630;4.896;2023-08-24T06:19:34;101255.69;;;18.89;82.72
46942;BME280;32676;52.630;4.896;2023-08-24T06:22:00;101293.34;;;18.97;82.53
46942;BME280;32676;52.630;4.896;2023-08-24T06:24:27;101322.31;;;19.03;82.01
46942;BME280;32676;52.630;4.896;2023-08-24T06:26:53;101360.94;;;19.10;81.67
46942;BME280;32676;52.630;4.896;2023-08-24T06:29:19;101403.88;;;19.20;81.22
46942;BME280;32676;52.630;4.896;2023-08-24T06:31:45;101440.72;;;19.28;81.35
46942;BME280;32676;52.630;4.896;2023-08-24T06:34:13;101471.38;;;19.35;81.10
46942;BME280;32676;52.630;4.896;2023-08-24T06:36:41;101502.06;;;19.42;80.78
46942;BME280;32676;52.630;4.896;2023-08-24T06:39:07;101539.81;;;19.50;80.53
46942;BME280;32676;52.630;4.896;2023-08-24T06:41:34;101578.50;;;19.58;80.49
46942;BME280;32676;52.630;4.896;2023-08-24T06:44:01;101613.56;;;19.66;80.36
46942;BME280;32676;52.630;4.896;2023-08-24T06:46:28;101655.72;;;19.75;79.94
46942;BME280;32676;52.630;4.896;2023-08-24T06:48:54;101668.78;;;19.80;79.54
46942;BME280;32676;52.630;4.896;2023-08-24T06:51:21;101711.78;;;19.89;79.58
46942;BME280;32676;52.630;4.896;2023-08-24T06:53:48;101745.19;;;19.97;79.59
46942;BME280;32676;52.630;4.896;2023-08-24T06:56:15;101794.41;;;20.07;79.35
46942;BME280;32676;52.630;4.896;2023-08-24T06:58:42;101818.16;;;20.11;78.83
46942;BME280;32676;52.630;4.896;2023-08-24T07:01:08;101843.63;;;20.17;78.72
46942;BME280;32676;52.630;4.896;2023-08-24T07:03:36;101869.00;;;20.24;78.45
46942;BME280;32676;52.630;4.896;2023-08-24T07:06:02;101910.34;;;20.33;78.15
46942;BME280;32676;52.630;4.896;2023-08-24T07:08:29;101947.28;;;20.41;77.93
46942;BME280;32676;52.630;4.896;2023-08-24T07:10:57;101970.22;;;20.45;77.68
46942;BME280;32676;52.630;4.896;2023-08-24T07:13:23;101967.56;;;20.45;77.14
46942;BME280;32676;52.630;4.896;2023-08-24T07:15:51;101972.78;;;20.46;77.01
46942;BME280;32676;52.630;4.896;2023-08-24T07:18:17;101984.16;;;20.50;76.88
46942;BME280;32676;52.630;4.896;2023-08-24T07:20:45;102005.34;;;20.53;77.15
46942;BME280;32676;52.630;4.896;2023-08-24T07:23:11;102014.13;;;20.55;77.77
46942;BME280;32676;52.630;4.896;2023-08-24T07:25:38;102017.59;;;20.57;77.50
46942;BME280;32676;52.630;4.896;2023-08-24T07:28:07;102057.28;;;20.65;77.56
46942;BME280;32676;52.630;4.896;2023-08-24T07:30:34;102072.09;;;20.70;76.99
46942;BME280;32676;52.630;4.896;2023-08-24T07:33:04;102089.69;;;20.75;76.88
46942;BME280;32676;52.630;4.896;2023-08-24T07:35:30;102140.84;;;20.83;76.84
46942;BME280;32676;52.630;4.896;2023-08-24T07:37:57;102169.78;;;20.92;76.81
46942;BME280;32676;52.630;4.896;2023-08-24T07:40:23;102217.38;;;21.01;76.93
46942;BME280;32676;52.630;4.896;2023-08-24T07:42:53;102251.63;;;21.11;76.48
46942;BME280;32676;52.630;4.896;2023-08-24T07:45:21;102258.41;;;21.00;76.12
46942;BME280;32676;52.630;4.896;2023-08-24T07:47:49;102327.38;;;21.27;75.88
46942;BME280;32676;52.630;4.896;2023-08-24T07:50:15;102384.69;;;21.39;75.32
46942;BME280;32676;52.630;4.896;2023-08-24T07:52:41;102435.75;;;21.52;75.41
46942;BME280;32676;52.630;4.896;2023-08-24T07:55:08;102515.97;;;21.69;74.99
46942;BME280;32676;52.630;4.896;2023-08-24T07:57:34;102610.31;;;21.90;74.81
46942;BME280;32676;52.630;4.896;2023-08-24T08:00:01;102667.72;;;22.02;74.29
46942;BME280;32676;52.630;4.896;2023-08-24T08:02:29;102694.19;;;22.08;73.70
46942;BME280;32676;52.630;4.896;2023-08-24T08:04:57;102715.31;;;22.14;72.75
46942;BME280;32676;52.630;4.896;2023-08-24T08:07:24;102722.38;;;22.15;72.85
46942;BME280;32676;52.630;4.896;2023-08-24T08:09:50;102711.84;;;22.12;72.84
46942;BME280;32676;52.630;4.896;2023-08-24T08:12:16;102680.91;;;22.07;72.88
46942;BME280;32676;52.630;4.896;2023-08-24T08:14:42;102663.16;;;22.04;73.22
46942;BME280;32676;52.630;4.896;2023-08-24T08:17:09;102625.22;;;21.96;73.32
46942;BME280;32676;52.630;4.896;2023-08-24T08:19:36;102580.09;;;21.88;73.57
46942;BME280;32676;52.630;4.896;2023-08-24T08:22:03;102538.66;;;21.79;73.66
46942;BME280;32676;52.630;4.896;2023-08-24T08:24:29;102500.78;;;21.70;73.77
46942;BME280;32676;52.630;4.896;2023-08-24T08:26:56;102441.56;;;21.60;74.10
46942;BME280;32676;52.630;4.896;2023-08-24T08:29:22;102376.25;;;21.46;74.24
46942;BME280;32676;52.630;4.896;2023-08-24T08:31:49;102333.94;;;21.37;74.33
46942;BME280;32676;52.630;4.896;2023-08-24T08:34:15;102290.72;;;21.29;75.32
46942;BME280;32676;52.630;4.896;2023-08-24T08:36:43;102265.25;;;21.22;75.67
46942;BME280;32676;52.630;4.896;2023-08-24T08:39:09;102235.25;;;21.17;75.77
46942;BME280;32676;52.630;4.896;2023-08-24T08:41:38;102192.97;;;21.07;76.12
46942;BME280;32676;52.630;4.896;2023-08-24T08:44:07;102165.63;;;21.02;76.25
46942;BME280;32676;52.630;4.896;2023-08-24T08:46:35;102137.53;;;20.95;76.27
46942;BME280;32676;52.630;4.896;2023-08-24T08:49:01;102070.53;;;20.82;76.48
46942;BME280;32676;52.630;4.896;2023-08-24T08:51:28;102041.59;;;20.75;76.68
46942;BME280;32676;52.630;4.896;2023-08-24T08:53:56;102018.69;;;20.70;77.04
46942;BME280;32676;52.630;4.896;2023-08-24T08:56:23;101997.56;;;20.66;77.37
46942;BME280;32676;52.630;4.896;2023-08-24T08:58:49;101958.81;;;20.57;77.83
46942;BME280;32676;52.630;4.896;2023-08-24T09:01:16;101923.53;;;20.52;78.19
46942;BME280;32676;52.630;4.896;2023-08-24T09:03:43;101904.31;;;20.45;78.72
46942;BME280;32676;52.630;4.896;2023-08-24T09:06:10;101871.75;;;20.39;78.96
46942;BME280;32676;52.630;4.896;2023-08-24T09:08:36;101847.13;;;20.33;79.50
46942;BME280;32676;52.630;4.896;2023-08-24T09:11:04;101816.41;;;20.26;79.65
46942;BME280;32676;52.630;4.896;2023-08-24T09:13:33;101808.59;;;20.23;80.14
46942;BME280;32676;52.630;4.896;2023-08-24T09:16:03;101795.41;;;20.20;80.72
46942;BME280;32676;52.630;4.896;2023-08-24T09:18:34;101775.97;;;20.18;80.42
46942;BME280;32676;52.630;4.896;2023-08-24T09:21:00;101775.13;;;20.18;80.68
46942;BME280;32676;52.630;4.896;2023-08-24T09:23:27;101766.34;;;20.16;81.23
46942;BME280;32676;52.630;4.896;2023-08-24T09:25:54;101768.13;;;20.15;81.56
46942;BME280;32676;52.630;4.896;2023-08-24T09:28:23;101756.69;;;20.13;81.68
46942;BME280;32676;52.630;4.896;2023-08-24T09:30:52;101744.31;;;20.12;81.81
46942;BME280;32676;52.630;4.896;2023-08-24T09:33:19;101750.50;;;20.12;81.91
46942;BME280;32676;52.630;4.896;2023-08-24T09:35:51;101755.81;;;20.12;82.12
46942;BME280;32676;52.630;4.896;2023-08-24T09:38:18;101758.41;;;20.14;81.92
46942;BME280;32676;52.630;4.896;2023-08-24T09:40:50;101767.34;;;20.13;82.08
46942;BME280;32676;52.630;4.896;2023-08-24T09:43:17;101756.69;;;20.13;82.08
46942;BME280;32676;52.630;4.896;2023-08-24T09:45:54;101757.66;;;20.12;82.28
46942;BME280;32676;52.630;4.896;2023-08-24T09:48:21;101755.81;;;20.12;81.90
46942;BME280;32676;52.630;4.896;2023-08-24T09:50:48;101756.69;;;20.13;82.20
46942;BME280;32676;52.630;4.896;2023-08-24T09:53:15;101782.22;;;20.17;82.19
46942;BME280;32676;52.630;4.896;2023-08-24T09:55:42;101786.63;;;20.18;82.11
46942;BME280;32676;52.630;4.896;2023-08-24T09:58:10;101789.22;;;20.20;82.31
46942;BME280;32676;52.630;4.896;2023-08-24T10:00:36;101793.59;;;20.21;82.21
46942;BME280;32676;52.630;4.896;2023-08-24T10:03:05;101793.50;;;20.22;82.67
46942;BME280;32676;52.630;4.896;2023-08-24T10:05:32;101793.69;;;20.19;83.02
46942;BME280;32676;52.630;4.896;2023-08-24T10:07:58;101781.31;;;20.18;83.27
46942;BME280;32676;52.630;4.896;2023-08-24T10:10:26;101779.56;;;20.17;83.54
46942;BME280;32676;52.630;4.896;2023-08-24T10:12:56;101765.47;;;20.15;83.57
46942;BME280;32676;52.630;4.896;2023-08-24T10:15:24;101762.88;;;20.13;83.72
46942;BME280;32676;52.630;4.896;2023-08-24T10:17:50;101772.59;;;20.14;83.94
46942;BME280;32676;52.630;4.896;2023-08-24T10:20:19;101777.88;;;20.16;84.19
46942;BME280;32676;52.630;4.896;2023-08-24T10:22:45;101760.31;;;20.12;84.47
46942;BME280;32676;52.630;4.896;2023-08-24T10:25:13;101742.75;;;20.08;84.65
46942;BME280;32676;52.630;4.896;2023-08-24T10:27:41;101743.63;;;20.08;85.09
46942;BME280;32676;52.630;4.896;2023-08-24T10:30:09;101742.75;;;20.08;85.23
46942;BME280;32676;52.630;4.896;2023-08-24T10:32:36;101729.59;;;20.05;85.67
46942;BME280;32676;52.630;4.896;2023-08-24T10:35:04;101750.66;;;20.09;85.71
46942;BME280;32676;52.630;4.896;2023-08-24T10:37:32;101749.81;;;20.09;85.54
46942;BME280;32676;52.630;4.896;2023-08-24T10:39:59;101757.72;;;20.10;85.62
46942;BME280;32676;52.630;4.896;2023-08-24T10:42:26;101765.66;;;20.12;86.02
46942;BME280;32676;52.630;4.896;2023-08-24T10:44:52;101762.09;;;20.11;86.06
46942;BME280;32676;52.630;4.896;2023-08-24T10:47:19;101741.88;;;20.07;86.02
46942;BME280;32676;52.630;4.896;2023-08-24T10:49:56;101719.09;;;20.02;86.40
46942;BME280;32676;52.630;4.896;2023-08-24T10:52:23;101686.66;;;19.93;86.47
46942;BME280;32676;52.630;4.896;2023-08-24T10:54:51;101682.44;;;19.89;86.38
46942;BME280;32676;52.630;4.896;2023-08-24T10:57:19;101653.28;;;19.86;86.84
46942;BME280;32676;52.630;4.896;2023-08-24T10:59:45;101640.13;;;19.83;87.02
46942;BME280;32676;52.630;4.896;2023-08-24T11:02:23;101632.31;;;19.80;87.23
46942;BME280;32676;52.630;4.896;2023-08-24T11:05:14;101626.13;;;19.80;87.47
46942;BME280;32676;52.630;4.896;2023-08-24T11:07:51;101632.31;;;19.80;87.44
46942;BME280;32676;52.630;4.896;2023-08-24T11:10:20;101627.91;;;19.79;87.72
46942;BME280;32676;52.630;4.896;2023-08-24T11:13:03;101617.44;;;19.76;87.57
46942;BME280;32676;52.630;4.896;2023-08-24T11:15:30;101608.69;;;19.74;87.68
46942;BME280;32676;52.630;4.896;2023-08-24T11:18:10;101629.72;;;19.79;87.80
46942;BME280;32676;52.630;4.896;2023-08-24T11:20:37;101640.22;;;19.82;87.91
46942;BME280;32676;52.630;4.896;2023-08-24T11:23:03;101611.34;;;19.74;87.33
46942;BME280;32676;52.630;4.896;2023-08-24T11:25:31;101592.03;;;19.69;87.23
46942;BME280;32676;52.630;4.896;2023-08-24T11:28:01;101584.97;;;19.68;87.09
46942;BME280;32676;52.630;4.896;2023-08-24T11:30:29;101584.97;;;19.68;87.06
46942;BME280;32676;52.630;4.896;2023-08-24T11:32:55;101570.88;;;19.66;87.31
46942;BME280;32676;52.630;4.896;2023-08-24T11:35:24;101564.69;;;19.65;87.36
46942;BME280;32676;52.630;4.896;2023-08-24T11:37:52;101584.13;;;19.67;87.86
46942;BME280;32676;52.630;4.896;2023-08-24T11:40:19;101593.75;;;19.70;87.69
46942;BME280;32676;52.630;4.896;2023-08-24T11:42:47;101588.41;;;19.70;87.75
46942;BME280;32676;52.630;4.896;2023-08-24T11:45:16;101629.81;;;19.77;87.84
46942;BME280;32676;52.630;4.896;2023-08-24T11:47:42;101650.03;;;19.81;87.84
46942;BME280;32676;52.630;4.896;2023-08-24T11:50:09;101687.88;;;19.88;87.85
46942;BME280;32676;52.630;4.896;2023-08-24T11:52:38;101693.03;;;19.91;87.74
46942;BME280;32676;52.630;4.896;2023-08-24T11:55:05;101712.31;;;19.96;87.56
46942;BME280;32676;52.630;4.896;2023-08-24T11:57:33;101750.16;;;20.03;87.51
46942;BME280;32676;52.630;4.896;2023-08-24T12:00:02;101771.16;;;20.09;87.11
46942;BME280;32676;52.630;4.896;2023-08-24T12:02:29;101808.16;;;20.15;87.02
46942;BME280;32676;52.630;4.896;2023-08-24T12:04:55;101833.63;;;20.21;86.77
46942;BME280;32676;52.630;4.896;2023-08-24T12:07:22;101860.84;;;20.27;86.76
46942;BME280;32676;52.630;4.896;2023-08-24T12:09:48;101873.06;;;20.31;86.72
46942;BME280;32676;52.630;4.896;2023-08-24T12:12:18;101904.78;;;20.38;86.78
46942;BME280;32676;52.630;4.896;2023-08-24T12:14:46;101939.88;;;20.46;86.44
46942;BME280;32676;52.630;4.896;2023-08-24T12:17:14;102012.09;;;20.60;85.90
46942;BME280;32676;52.630;4.896;2023-08-24T12:19:41;102089.50;;;20.78;86.01
46942;BME280;32676;52.630;4.896;2023-08-24T12:22:12;102154.69;;;20.91;85.75
46942;BME280;32676;52.630;4.896;2023-08-24T12:24:42;102237.38;;;21.10;85.08
46942;BME280;32676;52.630;4.896;2023-08-24T12:27:16;102313.06;;;21.28;84.78
46942;BME280;32676;52.630;4.896;2023-08-24T12:29:44;102399.53;;;21.44;83.89
46942;BME280;32676;52.630;4.896;2023-08-24T12:32:10;102429.47;;;21.53;82.92
46942;BME280;32676;52.630;4.896;2023-08-24T12:34:38;102488.59;;;21.64;82.02
46942;BME280;32676;52.630;4.896;2023-08-24T12:37:04;102542.41;;;21.75;82.02
46942;BME280;32676;52.630;4.896;2023-08-24T12:39:34;102594.44;;;21.87;81.59
46942;BME280;32676;52.630;4.896;2023-08-24T12:42:01;102634.03;;;21.98;81.24
46942;BME280;32676;52.630;4.896;2023-08-24T12:44:27;102713.56;;;22.13;80.94
46942;BME280;32676;52.630;4.896;2023-08-24T12:46:54;102755.78;;;22.26;81.07
46942;BME280;32676;52.630;4.896;2023-08-24T12:49:20;102801.66;;;22.37;80.80
46942;BME280;32676;52.630;4.896;2023-08-24T12:51:48;102850.38;;;22.45;80.24